Time;durP1;ratioP1;P1;durP2;ratioP2;P2;SDS_P1;SDS_P2;PMS_P1;PMS_P2;Temp;Humidity;BMP_temperature;BMP_pressure;BME280_temperature;BME280_humidity;BME280_pressure;Samples;Min_cycle;Max_cycle;Signal;HPM_P1;HPM_P2
2023/12/15 00:00:49;;;;;;;6.30;5.03;;;;;;;6.42;84.03;97628.47;4974273;28;20047;-80
2023/12/15 00:03:16;;;;;;;8.60;5.70;;;;;;;6.42;83.77;97634.47;4974271;28;20047;-80
2023/12/15 00:05:45;;;;;;;6.88;5.65;;;;;;;6.38;83.21;97640.84;4974388;28;20105;-80
2023/12/15 00:08:13;;;;;;;6.82;5.13;;;;;;;6.35;82.42;97638.53;4974258;28;20069;-80
2023/12/15 00:10:41;;;;;;;7.57;5.63;;;;;;;6.32;82.03;97643.97;4974350;28;20046;-80
2023/12/15 00:13:08;;;;;;;7.22;4.63;;;;;;;6.29;82.08;97646.81;4974221;28;20146;-80
2023/12/15 00:15:36;;;;;;;8.63;6.38;;;;;;;6.31;83.88;97647.50;4973912;28;20047;-80
2023/12/15 00:18:03;;;;;;;8.55;6.05;;;;;;;6.34;84.79;97657.59;4974103;28;20059;-80
2023/12/15 00:20:31;;;;;;;9.80;5.95;;;;;;;6.37;84.34;97662.56;4974268;28;20047;-79
2023/12/15 00:23:00;;;;;;;10.05;6.47;;;;;;;6.37;85.35;97663.38;4974334;28;20057;-80
2023/12/15 00:25:28;;;;;;;9.18;6.30;;;;;;;6.40;85.98;97662.28;4973944;28;20082;-80
2023/12/15 00:27:56;;;;;;;10.40;7.20;;;;;;;6.42;86.06;97665.56;4973877;28;20054;-80
2023/12/15 00:30:23;;;;;;;8.35;6.30;;;;;;;6.40;85.79;97667.47;4974338;28;20121;-80
2023/12/15 00:32:51;;;;;;;10.45;7.38;;;;;;;6.38;85.17;97672.81;4973682;28;20047;-80
2023/12/15 00:35:19;;;;;;;10.20;6.57;;;;;;;6.35;84.41;97672.22;4974099;28;20050;-81
2023/12/15 00:37:46;;;;;;;9.30;6.25;;;;;;;6.32;84.01;97681.09;4973786;28;20051;-80
2023/12/15 00:40:16;;;;;;;7.35;5.40;;;;;;;6.27;83.20;97687.59;4977146;28;20050;-80
2023/12/15 00:42:44;;;;;;;9.32;5.88;;;;;;;6.23;83.13;97686.19;4977747;28;20469;-79
2023/12/15 00:45:11;;;;;;;6.43;4.93;;;;;;;6.20;82.94;97695.03;4977901;28;20051;-80
2023/12/15 00:47:39;;;;;;;9.25;5.93;;;;;;;6.17;83.06;97703.91;4977704;28;20055;-80
2023/12/15 00:50:08;;;;;;;8.48;5.55;;;;;;;6.14;82.55;97698.97;4977543;28;20058;-81
2023/12/15 00:52:36;;;;;;;9.05;5.55;;;;;;;6.11;82.87;97704.41;4977725;28;20062;-79
2023/12/15 00:55:04;;;;;;;8.25;5.85;;;;;;;6.09;82.63;97719.25;4977847;28;20494;-80
2023/12/15 00:57:33;;;;;;;8.07;5.15;;;;;;;6.06;82.59;97722.09;4977692;28;20499;-80
2023/12/15 01:00:02;;;;;;;9.10;5.60;;;;;;;6.04;83.15;97724.00;4977775;28;20050;-80
2023/12/15 01:02:30;;;;;;;10.70;6.35;;;;;;;6.01;83.16;97721.63;4977738;28;20050;-80
2023/12/15 01:04:57;;;;;;;9.13;6.63;;;;;;;5.98;83.37;97725.31;4977626;28;20179;-80
2023/12/15 01:07:25;;;;;;;8.13;5.65;;;;;;;5.98;83.86;97727.06;4977617;28;20494;-80
2023/12/15 01:09:53;;;;;;;10.38;6.70;;;;;;;6.01;84.69;97744.13;4977214;28;20055;-80
2023/12/15 01:12:20;;;;;;;10.48;6.28;;;;;;;6.01;84.83;97736.34;4977349;28;20050;-80
2023/12/15 01:14:50;;;;;;;11.90;6.95;;;;;;;6.01;84.68;97747.53;4977526;28;20499;-80
2023/12/15 01:17:17;;;;;;;10.95;7.00;;;;;;;6.00;84.77;97748.50;4977967;28;20059;-80
2023/12/15 01:19:45;;;;;;;9.27;5.72;;;;;;;5.97;83.43;97754.75;4977239;28;20101;-80
2023/12/15 01:22:11;;;;;;;10.65;6.75;;;;;;;5.95;82.67;97750.66;4977271;28;20051;-80
2023/12/15 01:24:39;;;;;;;9.02;6.07;;;;;;;5.94;82.86;97761.91;4977495;28;20078;-80
2023/12/15 01:27:07;;;;;;;10.88;5.55;;;;;;;5.92;83.56;97767.19;4977198;28;20047;-79
2023/12/15 01:29:34;;;;;;;10.57;6.30;;;;;;;5.91;83.34;97762.16;4977197;28;20055;-80
2023/12/15 01:32:04;;;;;;;11.63;6.55;;;;;;;5.93;84.72;97760.28;4977281;28;20141;-80
2023/12/15 01:34:31;;;;;;;9.40;6.18;;;;;;;5.96;85.42;97766.03;4977229;28;20054;-80
2023/12/15 01:36:59;;;;;;;12.00;7.35;;;;;;;6.01;84.88;97775.22;4977090;28;20051;-80
2023/12/15 01:39:26;;;;;;;9.32;6.07;;;;;;;5.99;83.91;97780.50;4976897;28;20541;-80
2023/12/15 01:41:54;;;;;;;15.02;7.15;;;;;;;6.00;85.09;97795.13;4977373;28;20051;-80
2023/12/15 01:44:22;;;;;;;12.88;7.57;;;;;;;6.02;85.30;97782.06;4977153;28;20078;-80
2023/12/15 01:46:49;;;;;;;9.13;6.15;;;;;;;5.98;84.00;97792.63;4976766;28;20047;-80
2023/12/15 01:49:19;;;;;;;9.35;6.03;;;;;;;5.96;83.56;97794.53;4976351;28;20101;-80
2023/12/15 01:51:46;;;;;;;10.60;6.72;;;;;;;5.94;83.73;97795.56;4975692;28;20061;-80
2023/12/15 01:54:14;;;;;;;10.43;6.63;;;;;;;5.91;84.01;97796.66;4977018;28;20055;-80
2023/12/15 01:56:41;;;;;;;11.68;7.43;;;;;;;5.92;83.92;97802.66;4976608;28;20105;-80
2023/12/15 01:59:11;;;;;;;9.73;6.35;;;;;;;5.88;82.83;97806.41;4975753;28;20138;-80
2023/12/15 02:01:38;;;;;;;11.48;7.65;;;;;;;5.84;82.91;97800.69;4976635;28;20047;-80
2023/12/15 02:04:06;;;;;;;12.68;6.97;;;;;;;5.82;82.79;97807.75;4976660;28;20050;-80
2023/12/15 02:06:35;;;;;;;14.18;7.88;;;;;;;5.80;82.71;97809.63;4976372;28;20058;-80
2023/12/15 02:09:03;;;;;;;13.43;8.50;;;;;;;5.77;82.03;97807.28;4976405;28;20050;-80
2023/12/15 02:11:31;;;;;;;10.48;6.97;;;;;;;5.74;82.34;97817.88;4976738;28;20058;-80
2023/12/15 02:13:58;;;;;;;13.75;7.72;;;;;;;5.74;83.45;97813.50;4976610;28;20537;-80
2023/12/15 02:16:26;;;;;;;11.95;7.65;;;;;;;5.75;83.83;97820.34;4976429;28;20054;-80
2023/12/15 02:18:54;;;;;;;11.90;7.40;;;;;;;5.76;83.82;97823.75;4976114;28;20055;-80
2023/12/15 02:21:21;;;;;;;13.23;8.48;;;;;;;5.75;83.79;97829.88;4975778;28;20078;-80
2023/12/15 02:23:50;;;;;;;12.30;7.40;;;;;;;5.74;83.51;97836.81;4976137;28;20050;-80
2023/12/15 02:26:18;;;;;;;14.63;7.85;;;;;;;5.77;84.22;97831.41;4976445;28;20047;-80
2023/12/15 02:28:46;;;;;;;14.63;7.90;;;;;;;5.78;84.31;97835.63;4976055;28;20058;-80
2023/12/15 02:31:13;;;;;;;17.17;8.65;;;;;;;5.80;84.72;97840.72;4976407;28;20051;-80
2023/12/15 02:33:41;;;;;;;15.18;8.15;;;;;;;5.81;84.39;97838.94;4976159;28;20518;-81
2023/12/15 02:36:09;;;;;;;13.38;7.90;;;;;;;5.81;84.28;97838.94;4976375;28;20113;-80
2023/12/15 02:38:36;;;;;;;16.10;8.35;;;;;;;5.82;84.54;97835.41;4975803;28;20047;-80
2023/12/15 02:41:10;;;;;;;14.98;8.05;;;;;;;5.81;84.36;97846.69;4976839;28;20074;-80
2023/12/15 02:43:38;;;;;;;13.52;7.95;;;;;;;5.81;83.87;97857.06;4976090;28;20111;-81
2023/12/15 02:46:06;;;;;;;13.50;8.25;;;;;;;5.81;84.20;97857.88;4975984;28;20047;-80
2023/12/15 02:48:34;;;;;;;13.20;7.90;;;;;;;5.81;84.40;97852.69;4975727;28;20051;-80
2023/12/15 02:51:02;;;;;;;17.35;9.20;;;;;;;5.82;85.53;97859.53;4975809;28;20458;-80
2023/12/15 02:53:29;;;;;;;15.85;8.63;;;;;;;5.81;85.30;97860.47;4975762;28;20082;-79
2023/12/15 02:55:57;;;;;;;14.55;8.10;;;;;;;5.82;85.43;97866.50;4975893;28;20057;-80
2023/12/15 02:58:26;;;;;;;16.25;9.55;;;;;;;5.84;85.49;97873.19;4975325;28;20062;-80
2023/12/15 03:00:53;;;;;;;15.65;9.43;;;;;;;5.85;84.87;97868.81;4975368;28;20073;-80
2023/12/15 03:03:21;;;;;;;14.70;9.38;;;;;;;5.84;85.47;97872.34;4975588;28;20134;-80
2023/12/15 03:05:49;;;;;;;17.40;9.40;;;;;;;5.83;85.86;97878.47;4976049;28;20057;-80
2023/12/15 03:08:16;;;;;;;15.07;8.80;;;;;;;5.84;86.01;97883.53;4975239;28;20109;-80
2023/12/15 03:10:44;;;;;;;14.98;8.73;;;;;;;5.85;85.73;97882.59;4975232;28;20054;-81
2023/12/15 03:13:12;;;;;;;14.57;9.00;;;;;;;5.84;84.48;97888.72;4975091;28;20046;-79
2023/12/15 03:15:42;;;;;;;14.65;9.63;;;;;;;5.82;84.39;97884.63;4974876;28;20458;-81
2023/12/15 03:18:09;;;;;;;18.10;10.05;;;;;;;5.83;85.05;97894.00;4975031;28;20102;-80
2023/12/15 03:20:37;;;;;;;16.83;10.68;;;;;;;5.84;85.75;97899.06;4975041;28;20530;-80
2023/12/15 03:23:05;;;;;;;11.77;8.18;;;;;;;5.85;85.34;97894.72;4975306;28;20051;-81
2023/12/15 03:25:32;;;;;;;15.32;8.63;;;;;;;5.84;85.55;97895.66;4975252;28;20058;-81
2023/12/15 03:28:00;;;;;;;18.42;10.73;;;;;;;5.82;86.24;97911.31;4975020;28;20054;-80
2023/12/15 03:30:28;;;;;;;14.75;9.13;;;;;;;5.84;86.39;97903.41;4975237;28;20674;-80
2023/12/15 03:32:57;;;;;;;15.07;8.93;;;;;;;5.85;85.94;97908.47;4975127;28;20042;-80
2023/12/15 03:35:24;;;;;;;16.13;9.32;;;;;;;5.87;86.22;97919.53;4975412;28;20431;-81
2023/12/15 03:37:52;;;;;;;15.63;8.77;;;;;;;5.87;86.04;97919.53;4975091;28;20057;-80
2023/12/15 03:40:20;;;;;;;15.80;9.52;;;;;;;5.88;86.20;97917.78;4975160;28;20058;-81
2023/12/15 03:42:47;;;;;;;15.20;9.90;;;;;;;5.88;86.18;97920.38;4975695;28;20423;-81
2023/12/15 03:45:15;;;;;;;12.77;8.32;;;;;;;5.86;85.59;97927.44;4991917;28;20074;-79
2023/12/15 03:47:43;;;;;;;13.50;9.38;;;;;;;5.86;86.25;97930.00;4996564;28;20034;-79
2023/12/15 03:50:12;;;;;;;12.65;7.88;;;;;;;5.83;84.82;97927.69;4996749;28;20054;-80
2023/12/15 03:52:40;;;;;;;14.27;9.20;;;;;;;5.82;85.13;97926.03;4981197;28;20541;-81
2023/12/15 03:55:08;;;;;;;13.82;8.82;;;;;;;5.83;85.39;97935.44;4975447;28;20053;-81
2023/12/15 03:57:36;;;;;;;13.77;8.75;;;;;;;5.82;84.36;97946.75;4975232;28;20097;-80
2023/12/15 04:00:04;;;;;;;12.70;8.52;;;;;;;5.80;84.21;97954.63;4974684;28;20130;-80
2023/12/15 04:02:33;;;;;;;13.88;9.13;;;;;;;5.78;84.18;97949.56;4975065;28;20056;-81
2023/12/15 04:05:00;;;;;;;15.77;9.02;;;;;;;5.75;84.97;97949.81;4975225;28;20086;-80
2023/12/15 04:07:30;;;;;;;12.55;8.27;;;;;;;5.75;85.28;97957.59;4975095;28;20046;-81
2023/12/15 04:09:57;;;;;;;12.30;8.25;;;;;;;5.74;84.80;97950.75;4974439;28;20056;-80
2023/12/15 04:12:25;;;;;;;11.68;7.97;;;;;;;5.71;84.39;97952.75;4974231;28;20117;-79
2023/12/15 04:14:52;;;;;;;12.10;7.85;;;;;;;5.71;84.81;97955.34;4977426;28;20175;-80
2023/12/15 04:17:20;;;;;;;11.27;8.20;;;;;;;5.70;84.74;97959.69;4978912;28;20126;-80
2023/12/15 04:19:48;;;;;;;12.63;8.32;;;;;;;5.67;83.97;97954.75;4978392;28;20085;-80
2023/12/15 04:22:15;;;;;;;11.65;7.85;;;;;;;5.64;82.90;97957.59;4978780;28;20047;-80
2023/12/15 04:24:45;;;;;;;12.20;8.10;;;;;;;5.64;82.91;97964.50;4979127;28;20047;-80
2023/12/15 04:27:12;;;;;;;12.43;7.85;;;;;;;5.61;83.05;97962.97;4978959;28;20105;-80
2023/12/15 04:29:40;;;;;;;11.90;7.70;;;;;;;5.60;83.37;97963.09;4978480;28;20135;-80
2023/12/15 04:32:08;;;;;;;13.98;8.65;;;;;;;5.60;83.37;97974.28;4978541;28;20073;-80
2023/12/15 04:34:37;;;;;;;12.57;7.85;;;;;;;5.55;82.38;97971.19;4978908;28;20054;-80
2023/12/15 04:37:05;;;;;;;13.55;9.20;;;;;;;5.58;84.23;97986.53;4978594;28;20495;-79
2023/12/15 04:39:32;;;;;;;15.38;9.60;;;;;;;5.63;86.24;97992.16;4978172;28;20054;-81
2023/12/15 04:42:01;;;;;;;13.82;8.70;;;;;;;5.68;86.01;97997.81;4978441;28;20054;-80
2023/12/15 04:44:29;;;;;;;14.90;9.32;;;;;;;5.71;85.75;97991.59;4978505;28;20066;-80
2023/12/15 04:46:57;;;;;;;16.48;9.20;;;;;;;5.69;85.94;97999.47;4978194;28;20534;-80
2023/12/15 04:49:24;;;;;;;16.27;10.23;;;;;;;5.67;85.95;97996.16;4978397;28;20054;-80
2023/12/15 04:51:52;;;;;;;14.88;9.75;;;;;;;5.67;85.66;98006.53;4977604;28;20058;-80
2023/12/15 04:54:20;;;;;;;16.42;10.50;;;;;;;5.65;85.33;98008.41;4977534;28;20051;-80
2023/12/15 04:56:47;;;;;;;15.55;10.45;;;;;;;5.66;85.68;98010.03;4977509;28;20491;-81
2023/12/15 04:59:16;;;;;;;14.50;9.55;;;;;;;5.67;85.15;98013.47;4978306;28;20051;-81
2023/12/15 05:01:44;;;;;;;15.07;9.13;;;;;;;5.70;84.54;98021.00;4978805;28;20051;-81
2023/12/15 05:04:12;;;;;;;15.13;9.27;;;;;;;5.69;84.00;98022.78;4978586;28;20057;-81
2023/12/15 05:06:40;;;;;;;15.02;9.20;;;;;;;5.70;84.53;98029.59;4979019;28;20055;-80
2023/12/15 05:09:09;;;;;;;13.75;8.70;;;;;;;5.73;84.89;98026.78;4978359;28;20102;-81
2023/12/15 05:11:37;;;;;;;17.80;10.13;;;;;;;5.74;85.10;98025.81;4997450;28;20050;-81
2023/12/15 05:14:05;;;;;;;14.40;9.45;;;;;;;5.74;85.18;98023.25;4997652;28;20043;-81
2023/12/15 05:16:35;;;;;;;16.30;9.07;;;;;;;5.71;84.86;98030.44;4978719;28;20047;-81
2023/12/15 05:19:04;;;;;;;13.35;8.98;;;;;;;5.68;83.81;98034.06;4978666;28;20507;-81
2023/12/15 05:21:32;;;;;;;18.40;11.70;;;;;;;5.71;84.97;98038.19;4978137;28;20062;-81
2023/12/15 05:24:00;;;;;;;16.88;10.43;;;;;;;5.72;85.08;98035.47;4978213;28;20047;-81
2023/12/15 05:26:28;;;;;;;20.55;12.73;;;;;;;5.73;85.19;98046.69;4978127;28;20055;-81
2023/12/15 05:28:56;;;;;;;18.15;11.52;;;;;;;5.74;85.74;98043.94;4978196;28;20121;-81
2023/12/15 05:31:26;;;;;;;15.13;10.52;;;;;;;5.76;84.96;98047.25;4978222;28;20075;-81
2023/12/15 05:33:55;;;;;;;18.02;10.70;;;;;;;5.76;85.80;98061.97;4977948;28;20058;-80
2023/12/15 05:36:23;;;;;;;18.55;12.25;;;;;;;5.74;85.92;98059.47;4978367;28;20503;-80
2023/12/15 05:38:53;;;;;;;16.70;10.90;;;;;;;5.77;85.19;98072.22;4977751;28;20113;-80
2023/12/15 05:41:22;;;;;;;20.48;11.20;;;;;;;5.81;85.16;98079.75;4977833;28;20050;-81
2023/12/15 05:43:50;;;;;;;35.28;21.15;;;;;;;5.84;86.10;98080.34;4977985;28;20047;-81
2023/12/15 05:46:19;;;;;;;58.63;32.58;;;;;;;5.85;86.64;98096.72;4970143;28;20495;-81
2023/12/15 05:48:47;;;;;;;23.80;13.52;;;;;;;5.84;85.38;98095.88;4968919;28;20101;-80
2023/12/15 05:51:17;;;;;;;19.67;12.43;;;;;;;5.84;85.45;98095.03;4958591;28;20169;-80
2023/12/15 05:53:45;;;;;;;18.55;11.43;;;;;;;5.84;85.20;98102.81;4958362;28;20047;-80
2023/12/15 05:56:24;;;;;;;19.98;11.93;;;;;;;5.82;84.71;98107.31;4958423;28;20130;-80
2023/12/15 05:58:53;;;;;;;19.70;11.55;;;;;;;5.77;83.87;98111.06;4958038;28;20049;-80
2023/12/15 06:01:21;;;;;;;18.60;11.55;;;;;;;5.75;84.20;98123.28;4958363;28;20051;-80
2023/12/15 06:03:49;;;;;;;18.95;11.10;;;;;;;5.74;83.82;98126.81;4958482;28;20122;-80
2023/12/15 06:06:19;;;;;;;20.40;12.23;;;;;;;5.71;83.31;98129.63;4958272;28;20051;-80
2023/12/15 06:08:47;;;;;;;20.65;11.93;;;;;;;5.72;84.33;98138.22;4958388;28;20055;-80
2023/12/15 06:11:15;;;;;;;17.67;11.07;;;;;;;5.71;85.13;98140.00;4970808;28;20054;-81
2023/12/15 06:13:42;;;;;;;21.75;12.88;;;;;;;5.76;86.12;98143.06;4962656;28;20051;-80
2023/12/15 06:16:17;;;;;;;21.77;11.82;;;;;;;5.78;87.61;98143.75;4957356;28;20043;-78
2023/12/15 06:18:45;;;;;;;20.10;12.48;;;;;;;5.80;87.18;98156.59;4956601;28;20122;-79
2023/12/15 06:21:22;;;;;;;31.17;13.98;;;;;;;5.80;87.98;98155.78;4972594;28;20609;-78
2023/12/15 06:23:49;;;;;;;19.50;11.40;;;;;;;5.75;86.50;98153.50;4974745;28;20047;-79
2023/12/15 06:26:18;;;;;;;16.85;10.30;;;;;;;5.70;84.81;98156.44;4975609;28;20051;-78
2023/12/15 06:28:46;;;;;;;18.55;11.02;;;;;;;5.70;85.05;98164.22;4981858;28;20061;-79
2023/12/15 06:31:14;;;;;;;16.40;10.80;;;;;;;5.70;84.78;98171.16;4983983;28;20050;-79
2023/12/15 06:33:42;;;;;;;21.65;11.48;;;;;;;5.70;85.76;98171.97;4970736;28;20050;-78
2023/12/15 06:36:11;;;;;;;17.20;10.95;;;;;;;5.70;85.26;98171.97;4957196;28;20048;-79
2023/12/15 06:38:43;;;;;;;19.50;11.13;;;;;;;5.68;85.94;98180.81;4973919;28;20050;-78
2023/12/15 06:41:11;;;;;;;17.48;10.68;;;;;;;5.70;86.26;98179.75;4975773;28;20577;-79
2023/12/15 06:43:39;;;;;;;20.15;12.02;;;;;;;5.76;87.25;98187.06;4975201;28;20047;-79
2023/12/15 06:46:07;;;;;;;17.10;10.45;;;;;;;5.78;86.04;98185.19;4966001;28;20047;-79
2023/12/15 06:48:36;;;;;;;15.73;10.30;;;;;;;5.78;85.76;98182.59;4970538;28;20101;-79
2023/12/15 06:51:05;;;;;;;17.80;10.82;;;;;;;5.85;87.87;98189.94;4963945;28;20054;-79
2023/12/15 06:53:33;;;;;;;19.35;11.65;;;;;;;5.87;88.45;98193.25;4974446;28;20519;-79
2023/12/15 06:56:02;;;;;;;18.88;10.98;;;;;;;5.87;89.09;98194.06;4962549;28;20531;-79
2023/12/15 06:58:30;;;;;;;16.92;10.95;;;;;;;5.86;89.07;98201.94;4968366;28;20066;-79
2023/12/15 07:00:58;;;;;;;15.50;10.32;;;;;;;5.81;86.40;98201.44;4970379;28;20075;-78
2023/12/15 07:03:25;;;;;;;18.40;11.27;;;;;;;5.79;87.04;98209.31;4962100;28;20142;-78
2023/12/15 07:05:53;;;;;;;17.60;10.68;;;;;;;5.83;89.05;98213.34;4961654;28;20097;-78
2023/12/15 07:08:20;;;;;;;17.45;11.10;;;;;;;5.84;89.25;98214.16;4971636;28;20117;-78
2023/12/15 07:10:48;;;;;;;16.20;10.52;;;;;;;5.81;88.83;98219.56;4972701;28;20484;-79
2023/12/15 07:13:17;;;;;;;15.55;10.27;;;;;;;5.81;88.51;98235.13;4975181;28;20054;-80
2023/12/15 07:15:45;;;;;;;16.38;10.05;;;;;;;5.83;89.12;98233.25;4958400;28;20058;-79
2023/12/15 07:18:12;;;;;;;16.48;10.77;;;;;;;5.84;89.67;98242.66;4968439;28;20046;-78
2023/12/15 07:20:40;;;;;;;14.38;9.60;;;;;;;5.81;89.68;98240.28;4968477;28;20059;-78
2023/12/15 07:23:08;;;;;;;25.27;11.95;;;;;;;5.83;90.12;98243.59;4955879;28;20047;-78
2023/12/15 07:25:37;;;;;;;17.42;10.93;;;;;;;5.84;89.48;98250.41;4969007;28;20545;-78
2023/12/15 07:28:05;;;;;;;16.77;10.63;;;;;;;5.80;88.42;98255.00;4974399;28;20490;-78
2023/12/15 07:30:34;;;;;;;13.85;8.98;;;;;;;5.82;87.66;98265.28;4962257;28;20064;-79
2023/12/15 07:33:01;;;;;;;16.65;10.45;;;;;;;5.78;86.41;98270.66;4974252;28;20102;-78
2023/12/15 07:35:30;;;;;;;16.60;9.63;;;;;;;5.74;86.54;98271.81;4957667;28;20055;-79
2023/12/15 07:38:00;;;;;;;16.75;10.35;;;;;;;5.72;85.82;98278.03;4956069;28;20322;-79
2023/12/15 07:40:28;;;;;;;17.13;11.07;;;;;;;5.67;84.88;98264.59;4956036;28;20047;-78
2023/12/15 07:42:56;;;;;;;17.85;10.65;;;;;;;5.69;87.06;98265.31;4961889;28;20061;-78
2023/12/15 07:45:23;;;;;;;17.42;11.35;;;;;;;5.73;87.79;98269.34;4972316;28;20042;-79
2023/12/15 07:47:53;;;;;;;18.45;10.57;;;;;;;5.80;88.62;98275.72;4973724;28;20054;-78
2023/12/15 07:50:21;;;;;;;16.70;9.75;;;;;;;5.87;89.21;98276.13;4974058;28;20047;-79
2023/12/15 07:52:49;;;;;;;14.45;9.65;;;;;;;5.90;89.91;98273.28;4977416;28;20054;-79
2023/12/15 07:55:17;;;;;;;17.10;9.60;;;;;;;5.87;87.42;98286.47;4959948;28;20042;-77
2023/12/15 07:57:45;;;;;;;13.40;8.35;;;;;;;5.80;86.41;98290.44;4971872;28;20055;-78
2023/12/15 08:00:14;;;;;;;13.57;8.70;;;;;;;5.78;87.13;98299.13;4971348;28;20047;-78
2023/12/15 08:02:41;;;;;;;15.70;9.18;;;;;;;5.80;87.34;98293.03;4968884;28;20047;-77
2023/12/15 08:05:10;;;;;;;13.57;8.95;;;;;;;5.77;86.77;98284.56;4972156;28;20474;-78
2023/12/15 08:07:38;;;;;;;14.52;9.00;;;;;;;5.81;86.68;98282.53;4975056;28;20482;-78
2023/12/15 08:10:08;;;;;;;14.48;9.75;;;;;;;5.80;85.84;98277.50;4978017;28;20031;-78
2023/12/15 08:12:35;;;;;;;14.48;9.23;;;;;;;5.77;84.83;98292.31;4987194;28;20046;-80
2023/12/15 08:15:04;;;;;;;16.95;9.57;;;;;;;5.77;85.19;98294.91;4986504;28;20059;-80
2023/12/15 08:17:33;;;;;;;12.10;7.88;;;;;;;5.77;83.77;98291.47;4977751;28;20113;-77
2023/12/15 08:20:02;;;;;;;11.93;8.25;;;;;;;5.73;83.78;98295.25;4972491;28;20134;-79
2023/12/15 08:22:31;;;;;;;15.05;9.38;;;;;;;5.75;85.87;98298.53;4972023;28;20070;-77
2023/12/15 08:24:58;;;;;;;13.80;8.98;;;;;;;5.81;86.67;98299.84;4955930;28;20437;-79
2023/12/15 08:27:26;;;;;;;12.30;9.15;;;;;;;5.79;84.86;98299.94;4965565;28;20459;-78
2023/12/15 08:29:56;;;;;;;13.93;8.90;;;;;;;5.78;84.16;98304.31;4964105;28;20054;-77
2023/12/15 08:32:24;;;;;;;13.25;8.35;;;;;;;5.78;83.98;98314.69;4967576;28;20051;-77
2023/12/15 08:34:52;;;;;;;10.68;7.90;;;;;;;5.78;83.98;98311.25;4955669;28;20080;-77
2023/12/15 08:37:20;;;;;;;12.55;8.45;;;;;;;5.82;85.39;98319.66;4955322;28;20061;-78
2023/12/15 08:39:49;;;;;;;13.52;9.65;;;;;;;5.83;85.23;98319.53;4964912;28;20054;-78
2023/12/15 08:42:17;;;;;;;12.70;9.38;;;;;;;5.83;85.22;98316.94;4955224;28;20047;-78
2023/12/15 08:44:44;;;;;;;12.88;8.02;;;;;;;5.86;84.36;98327.09;4974499;28;20051;-79
2023/12/15 08:47:11;;;;;;;11.27;8.32;;;;;;;5.85;82.03;98327.19;4973695;28;20051;-78
2023/12/15 08:49:39;;;;;;;11.77;8.35;;;;;;;5.82;81.98;98330.00;4972145;28;20048;-80
2023/12/15 08:52:06;;;;;;;12.18;8.75;;;;;;;5.84;81.65;98341.91;4960720;28;20055;-78
2023/12/15 08:54:34;;;;;;;14.38;8.95;;;;;;;5.85;81.20;98345.31;4974542;28;20086;-79
2023/12/15 08:57:03;;;;;;;12.15;8.32;;;;;;;5.86;82.20;98352.13;4959816;28;20063;-78
2023/12/15 08:59:31;;;;;;;14.60;8.70;;;;;;;5.90;83.00;98348.41;4962961;28;20091;-79
2023/12/15 09:01:59;;;;;;;13.65;10.10;;;;;;;5.98;84.62;98359.06;4959195;28;20062;-78
2023/12/15 09:04:26;;;;;;;19.58;11.57;;;;;;;6.02;84.67;98367.47;4978299;28;20588;-78
2023/12/15 09:06:54;;;;;;;15.80;10.05;;;;;;;6.01;83.08;98361.44;4977270;28;20054;-78
2023/12/15 09:09:23;;;;;;;13.50;9.65;;;;;;;5.99;83.67;98352.94;4977327;28;20565;-78
2023/12/15 09:11:52;;;;;;;11.77;8.55;;;;;;;5.97;82.82;98360.03;4976878;28;20524;-78
2023/12/15 09:14:23;;;;;;;10.80;8.27;;;;;;;5.95;81.01;98352.34;4994351;28;20477;-78
2023/12/15 09:16:50;;;;;;;10.90;7.88;;;;;;;5.95;81.49;98359.31;4976952;28;20046;-78
2023/12/15 09:19:18;;;;;;;15.13;8.70;;;;;;;5.96;81.70;98364.34;4976448;28;20082;-78
2023/12/15 09:21:46;;;;;;;13.20;8.93;;;;;;;5.98;83.00;98372.84;4978472;28;20057;-78
2023/12/15 09:24:15;;;;;;;14.68;10.00;;;;;;;6.06;85.45;98369.72;4976969;28;20086;-78
2023/12/15 09:26:43;;;;;;;11.45;8.55;;;;;;;6.09;84.89;98366.09;4976752;28;20095;-78
2023/12/15 09:29:11;;;;;;;9.90;7.57;;;;;;;6.10;84.15;98365.97;4976683;28;20474;-78
2023/12/15 09:31:40;;;;;;;11.95;7.82;;;;;;;6.13;83.18;98370.94;4976430;28;20058;-78
2023/12/15 09:34:08;;;;;;;11.38;7.63;;;;;;;6.15;83.21;98363.06;4992734;28;20039;-80
2023/12/15 09:36:36;;;;;;;9.80;7.90;;;;;;;6.19;83.92;98357.53;4994918;28;20047;-79
2023/12/15 09:39:04;;;;;;;10.93;7.57;;;;;;;6.22;83.07;98358.25;4977834;28;20055;-78
2023/12/15 09:41:32;;;;;;;10.20;6.70;;;;;;;6.20;81.16;98355.78;4977339;28;20057;-78
2023/12/15 09:44:01;;;;;;;10.68;7.88;;;;;;;6.21;82.69;98364.38;4975307;28;20051;-78
2023/12/15 09:46:30;;;;;;;21.98;9.75;;;;;;;6.25;85.06;98365.81;4978546;28;20518;-78
2023/12/15 09:49:00;;;;;;;9.77;7.63;;;;;;;6.27;84.77;98372.53;4974967;28;20055;-77
2023/12/15 09:51:28;;;;;;;10.13;7.10;;;;;;;6.28;82.45;98383.75;4958545;28;20088;-78
2023/12/15 09:53:55;;;;;;;9.93;7.30;;;;;;;6.27;81.82;98374.28;4956555;28;20094;-78
2023/12/15 09:56:23;;;;;;;10.45;7.90;;;;;;;6.26;82.52;98380.44;4956130;28;20055;-79
2023/12/15 09:58:51;;;;;;;12.00;7.63;;;;;;;6.26;82.26;98380.44;4961499;28;20074;-79
2023/12/15 10:01:18;;;;;;;10.63;7.20;;;;;;;6.23;81.69;98378.03;4965522;28;20058;-78
2023/12/15 10:03:47;;;;;;;10.35;7.80;;;;;;;6.26;81.85;98375.25;4956010;28;20051;-78
2023/12/15 10:06:16;;;;;;;16.25;8.55;;;;;;;6.27;80.86;98389.84;4956039;28;20049;-78
2023/12/15 10:08:45;;;;;;;11.30;8.10;;;;;;;6.27;80.93;98379.47;4960059;28;20133;-78
2023/12/15 10:11:17;;;;;;;11.83;7.57;;;;;;;6.26;79.69;98388.19;4970323;28;20054;-78
2023/12/15 10:13:45;;;;;;;9.93;7.43;;;;;;;6.25;79.49;98384.75;4972925;28;20076;-78
2023/12/15 10:16:13;;;;;;;11.13;7.82;;;;;;;6.24;79.46;98382.31;4965152;28;20039;-78
2023/12/15 10:18:41;;;;;;;9.93;7.88;;;;;;;6.22;79.23;98385.00;4955292;28;20091;-79
2023/12/15 10:21:13;;;;;;;10.25;7.50;;;;;;;6.24;78.87;98383.13;4956151;28;20098;-78
2023/12/15 10:23:43;;;;;;;10.23;8.07;;;;;;;6.27;80.41;98382.06;4971707;28;20047;-79
2023/12/15 10:26:10;;;;;;;10.40;7.22;;;;;;;6.30;80.35;98390.47;4975142;28;20462;-79
2023/12/15 10:28:39;;;;;;;10.73;7.32;;;;;;;6.33;80.59;98397.19;4974078;28;20094;-79
2023/12/15 10:31:08;;;;;;;10.73;7.88;;;;;;;6.33;80.70;98397.19;4976685;28;20051;-78
2023/12/15 10:33:36;;;;;;;12.38;7.93;;;;;;;6.31;79.61;98399.06;4974823;28;20053;-78
2023/12/15 10:36:08;;;;;;;13.27;8.00;;;;;;;6.28;78.84;98405.28;4958755;28;20148;-79
2023/12/15 10:38:36;;;;;;;11.40;7.65;;;;;;;6.26;79.82;98401.16;4954948;28;20138;-78
2023/12/15 10:41:06;;;;;;;9.90;8.02;;;;;;;6.25;79.64;98409.84;4960850;28;20053;-79
2023/12/15 10:43:35;;;;;;;12.70;7.53;;;;;;;6.28;80.65;98414.84;4963526;28;20057;-78
2023/12/15 10:46:04;;;;;;;12.57;8.30;;;;;;;6.30;81.05;98413.78;4956503;28;20084;-79
2023/12/15 10:48:34;;;;;;;9.32;7.38;;;;;;;6.31;80.52;98409.41;4955907;28;20487;-79
2023/12/15 10:51:03;;;;;;;9.38;7.60;;;;;;;6.30;80.31;98412.97;4969428;28;20577;-79
2023/12/15 10:53:32;;;;;;;9.82;6.68;;;;;;;6.28;79.27;98414.84;4962587;28;20098;-78
2023/12/15 10:56:01;;;;;;;8.85;7.00;;;;;;;6.29;78.75;98406.09;4965174;28;20047;-78
2023/12/15 10:58:31;;;;;;;9.30;6.38;;;;;;;6.29;78.76;98424.25;4971336;28;20055;-79
2023/12/15 11:00:59;;;;;;;8.48;7.03;;;;;;;6.31;79.49;98420.59;4964479;28;20086;-79
2023/12/15 11:03:28;;;;;;;9.27;7.05;;;;;;;6.34;81.05;98419.56;4960268;28;20047;-78
2023/12/15 11:05:56;;;;;;;10.05;7.07;;;;;;;6.39;81.71;98422.66;4955254;28;20051;-78
2023/12/15 11:08:25;;;;;;;8.95;6.95;;;;;;;6.43;81.67;98425.84;4959296;28;20051;-80
2023/12/15 11:10:52;;;;;;;9.00;7.20;;;;;;;6.44;82.34;98424.91;4970923;28;20054;-81
2023/12/15 11:13:53;;;;;;;13.25;8.85;;;;;;;6.46;82.83;98428.22;4969658;28;20519;-79
2023/12/15 11:16:24;;;;;;;12.80;9.13;;;;;;;6.42;80.32;98425.03;4958398;28;20392;-79
2023/12/15 11:18:52;;;;;;;12.93;9.45;;;;;;;6.39;81.10;98422.66;4956024;28;20071;-78
2023/12/15 11:21:20;;;;;;;10.85;8.60;;;;;;;6.41;82.43;98425.97;4961866;28;20050;-80
2023/12/15 11:23:56;;;;;;;13.45;10.07;;;;;;;6.42;81.91;98427.63;4954905;28;20397;-80
2023/12/15 11:26:28;;;;;;;9.50;7.47;;;;;;;6.43;80.53;98434.47;4955398;28;20138;-78
2023/12/15 11:29:07;;;;;;;12.03;8.60;;;;;;;6.42;80.56;98431.97;4956533;28;20059;-79
2023/12/15 11:31:36;;;;;;;11.82;8.05;;;;;;;6.44;81.70;98432.69;4955945;28;20416;-80
2023/12/15 11:34:05;;;;;;;10.27;8.13;;;;;;;6.45;81.31;98431.75;4954274;28;20459;-79
2023/12/15 11:36:40;;;;;;;11.10;7.72;;;;;;;6.47;83.33;98438.50;4954037;28;20055;-79